SV2BBO-2 Thessaloniki GR current weather conditions

sailwx.info

Wind from 355 at 4 knots gusting 9

Air temperature 13.9° C
Dewpoint -1.7° C

Last reported at 2014-Oct-25 10:47 UTC.
Time now 2014-Oct-25 11:13 UTC

Location: N 40°38' E 022°57'.
View on Google Maps.

See reports from other nearby stations

  
Tides and Currents Weather Stations Pressure Air Temp Water Temp Dewpoint Dewpoint Depression Visibility Wind Speed Wind Dir Waves Ship Positions
date/time (UTC)wind fromknots sea level pressurealtimeterstation pressurevisibilityair tempwater tempwave heightnotes
2014-Oct-25 10:47 355 4 gusting 9 13.9
2014-Oct-25 10:37 001 4 gusting 6 13.9
2014-Oct-25 10:27 005 4 gusting 6 13.9
2014-Oct-25 10:17 356 4 gusting 6 13.9
2014-Oct-25 10:07 007 4 gusting 6 13.9
2014-Oct-25 09:57 357 3 gusting 5 13.9
2014-Oct-25 09:47 13.3
2014-Oct-25 09:37 355 5 gusting 7 13.9
2014-Oct-25 09:27 027 3 gusting 3 13.9
2014-Oct-25 09:17 044 4 gusting 6 13.9
2014-Oct-25 09:07 349 2 gusting 4 13.3
2014-Oct-25 08:57 341 4 gusting 5 13.3
2014-Oct-25 08:47 331 3 gusting 5 13.3
2014-Oct-25 08:37 300 4 gusting 5 13.3
2014-Oct-25 08:27 289 2 gusting 4 13.3
2014-Oct-25 08:17 302 4 gusting 7 13.3
2014-Oct-25 08:07 317 0 gusting 4 13.3
2014-Oct-25 07:57 337 3 gusting 5 13.3
2014-Oct-25 07:47 343 3 gusting 4 13.3
2014-Oct-25 07:37 352 5 gusting 7 13.3
2014-Oct-25 07:27 325 5 gusting 6 13.3
2014-Oct-25 07:17 328 4 gusting 5 13.3
2014-Oct-25 07:07 333 4 gusting 6 13.3
2014-Oct-25 06:57 004 5 gusting 5 12.8
2014-Oct-25 06:47 003 6 gusting 7 12.8
2014-Oct-25 06:37 352 6 gusting 6 12.8
2014-Oct-25 06:27 341 6 gusting 6 12.8
2014-Oct-25 06:17 333 3 gusting 3 12.8
2014-Oct-25 06:07 356 4 gusting 7 12.8
2014-Oct-25 05:57 336 4 gusting 6 12.8
2014-Oct-25 05:47 353 5 gusting 6 12.8
2014-Oct-25 05:37 327 4 gusting 3 12.2
2014-Oct-25 05:27 356 5 gusting 7 12.8
2014-Oct-25 05:17 328 3 gusting 4 12.2
2014-Oct-25 05:07 313 3 gusting 5 12.2
2014-Oct-25 04:57 342 3 gusting 3 12.8
2014-Oct-25 04:47 350 3 gusting 6 12.2
2014-Oct-25 04:37 013 3 gusting 4 12.2
2014-Oct-25 04:27 349 4 gusting 5 12.2
2014-Oct-25 04:17 345 4 gusting 5 12.8
2014-Oct-25 04:07 331 3 gusting 4 12.2
2014-Oct-25 03:57 295 2 gusting 3 12.2
2014-Oct-25 03:47 354 1 gusting 3 12.8
2014-Oct-25 03:37 340 5 gusting 4 12.8
2014-Oct-25 03:27 003 3 gusting 4 12.8
2014-Oct-25 03:17 358 2 gusting 2 12.8
2014-Oct-25 03:07 303 4 gusting 5 12.8
2014-Oct-25 02:57 348 4 gusting 6 12.8
2014-Oct-25 02:47 296 3 gusting 5 12.8
2014-Oct-25 02:37 12.8
2014-Oct-25 02:27 355 5 gusting 6 12.8
2014-Oct-25 02:17 041 6 gusting 8 12.8
2014-Oct-25 02:07 008 4 gusting 5 13.3
2014-Oct-25 01:57 058 2 gusting 5 12.8
2014-Oct-25 01:47 356 4 gusting 5 12.8
2014-Oct-25 01:37 354 5 gusting 6 12.8
2014-Oct-25 01:27 349 4 gusting 6 12.8
2014-Oct-25 01:17 004 6 gusting 7 12.2
2014-Oct-25 01:07 354 6 gusting 6 12.2
2014-Oct-25 00:57 357 5 gusting 6 12.2
2014-Oct-25 00:47 356 4 gusting 6 12.2
2014-Oct-25 00:37 349 3 gusting 5 12.2
2014-Oct-25 00:27 347 4 gusting 5 12.2
2014-Oct-25 00:17 350 1 gusting 2 12.2
2014-Oct-25 00:07 305 2 gusting 5 12.2
2014-Oct-24 23:57 306 3 gusting 6 12.2
2014-Oct-24 23:47 315 4 gusting 6 12.2
2014-Oct-24 23:37 356 5 gusting 4 11.7
2014-Oct-24 23:27 337 6 gusting 7 11.7
2014-Oct-24 23:17 355 8 gusting 10 11.7
2014-Oct-24 23:07 002 7 gusting 11 11.7
2014-Oct-24 22:57 347 8 gusting 12 11.7
2014-Oct-24 22:47 004 10 gusting 11 11.7
2014-Oct-24 22:37 346 9 gusting 13 12.2
2014-Oct-24 22:27 357 8 gusting 12 11.7
2014-Oct-24 22:17 336 5 gusting 5 11.7
2014-Oct-24 22:07 327 5 gusting 9 12.2
2014-Oct-24 21:57 319 6 gusting 7 12.2
2014-Oct-24 21:47 304 3 gusting 4 12.2
2014-Oct-24 21:37 342 3 gusting 6 12.2
2014-Oct-24 21:27 335 4 gusting 6 12.2
2014-Oct-24 21:17 332 4 gusting 4 12.2
2014-Oct-24 21:07 346 8 gusting 8 12.2
2014-Oct-24 20:57 001 8 gusting 13 12.8
2014-Oct-24 20:47 352 9 gusting 14 12.8
2014-Oct-24 20:37 354 9 gusting 13 12.8
2014-Oct-24 20:27 359 7 gusting 11 12.8
2014-Oct-24 20:17 007 6 gusting 8 13.3
2014-Oct-24 20:07 026 10 gusting 13 13.3
2014-Oct-24 19:57 015 11 gusting 26 13.3
2014-Oct-24 19:47 041 12 gusting 19 13.3
2014-Oct-24 19:37 050 14 gusting 23 13.3
2014-Oct-24 19:27 039 17 gusting 21 13.9
2014-Oct-24 19:17 058 17 gusting 22 13.9
2014-Oct-24 19:07 042 13 gusting 16 13.9
2014-Oct-24 18:57 047 13 gusting 21 13.9
2014-Oct-24 18:47 052 14 gusting 22 13.9
2014-Oct-24 18:37 036 17 gusting 19 13.9
2014-Oct-24 18:27 064 14 gusting 23 14.4
2014-Oct-24 18:17 056 14 gusting 20 14.4
2014-Oct-24 18:07 044 13 gusting 19 14.4
2014-Oct-24 17:57 044 15 gusting 15 14.4
2014-Oct-24 17:47 032 13 gusting 15 13.9
2014-Oct-24 17:37 069 14 gusting 14 14.4
2014-Oct-24 17:27 025 16 gusting 24 13.9
2014-Oct-24 17:17 033 14 gusting 18 13.9
2014-Oct-24 17:07 034 12 gusting 22 13.9
2014-Oct-24 16:57 035 9 gusting 14 13.9
2014-Oct-24 16:47 063 10 gusting 9 13.9
2014-Oct-24 16:37 027 6 gusting 11 13.3
2014-Oct-24 16:27 041 6 gusting 13 13.9
2014-Oct-24 16:17 034 6 gusting 8 13.3
2014-Oct-24 16:07 022 9 gusting 13 13.3
2014-Oct-24 15:57 034 10 gusting 10 13.9
2014-Oct-24 15:47 020 7 gusting 13 14.4
2014-Oct-24 15:37 072 11 gusting 14 14.4
2014-Oct-24 15:27 066 11 gusting 17 14.4
2014-Oct-24 15:17 057 6 gusting 13 14.4
2014-Oct-24 15:07 044 10 gusting 9 14.4
2014-Oct-24 14:57 043 7 gusting 11 14.4
2014-Oct-24 14:47 062 11 gusting 12 14.4
2014-Oct-24 14:17 106 4 gusting 6 15.0
2014-Oct-24 14:07 069 4 gusting 4 15.6
2014-Oct-24 13:57 260 15.0
2014-Oct-24 13:47 226 4 gusting 5 14.4
2014-Oct-24 13:37 295 4 gusting 6 13.9
2014-Oct-24 13:27 328 2 gusting 3 13.9
2014-Oct-24 13:17 261 4 gusting 5 13.9
2014-Oct-24 13:07 300 3 gusting 6 13.9
2014-Oct-24 12:57 316 5 gusting 7 13.9
2014-Oct-24 12:47 287 3 gusting 6 13.9
2014-Oct-24 12:37 308 3 gusting 4 13.9
2014-Oct-24 12:27 338 2 gusting 3 13.9
2014-Oct-24 12:17 292 6 gusting 9 13.9
2014-Oct-24 12:07 340 2 gusting 3 13.9
2014-Oct-24 11:57 310 2 gusting 5 13.3
2014-Oct-24 11:47 302 2 gusting 5 13.3
2014-Oct-24 11:37 307 5 gusting 4 13.3
2014-Oct-24 11:27 284 6 gusting 6 13.3
2014-Oct-24 11:17 324 3 gusting 7 13.3
2014-Oct-24 11:07 308 4 gusting 4 13.9
2014-Oct-24 10:57 328 3 gusting 5 13.9
2014-Oct-24 10:47 285 7 gusting 11 13.9
2014-Oct-24 10:37 289 4 gusting 7 13.9
2014-Oct-24 10:27 295 3 gusting 6 13.9
2014-Oct-24 10:17 311 3 gusting 4 14.4
2014-Oct-24 10:07 008 3 gusting 4 14.4
2014-Oct-24 09:57 313 2 gusting 4 14.4
2014-Oct-24 09:47 292 4 gusting 5 14.4
2014-Oct-24 09:37 002 2 gusting 2 14.4
2014-Oct-24 09:27 14.4
2014-Oct-24 09:17 345 0 gusting 3 14.4
2014-Oct-24 09:07 280 14.4
2014-Oct-24 08:57 118 2 gusting 3 14.4
2014-Oct-24 08:47 016 2 gusting 3 14.4
2014-Oct-24 08:37 083 1 gusting 4 14.4
2014-Oct-24 08:27 040 1 14.4
2014-Oct-24 08:17 119 0 gusting 2 15.0
2014-Oct-24 08:07 233 0 gusting 3 15.0
2014-Oct-24 07:57 023 14.4
2014-Oct-24 07:47 079 14.4
2014-Oct-24 07:37 110 0 gusting 2 14.4
2014-Oct-24 07:27 185 3 gusting 3 15.0
2014-Oct-24 07:17 188 3 gusting 6 15.0
2014-Oct-24 07:07 197 3 gusting 5 15.0
2014-Oct-24 06:57 210 1 gusting 3 14.4
2014-Oct-24 06:47 001 14.4
2014-Oct-24 06:37 239 13.9
2014-Oct-24 06:27 044 13.9
2014-Oct-24 06:17 071 13.9
2014-Oct-24 06:07 066 13.9
2014-Oct-24 05:57 065 13.9
2014-Oct-24 05:47 077 0 gusting 3 14.4
2014-Oct-24 05:37 083 14.4
2014-Oct-24 05:27 162 0 13.9
2014-Oct-24 05:17 087 13.3
2014-Oct-24 05:07 083 13.3
2014-Oct-24 04:57 123 13.3
2014-Oct-24 04:47 082 13.3
2014-Oct-24 04:37 082 12.8
2014-Oct-24 04:27 081 13.3
2014-Oct-24 04:17 107 13.3
2014-Oct-24 04:07 084 13.3
2014-Oct-24 03:57 098 13.3
2014-Oct-24 03:47 085 13.3
2014-Oct-24 03:37 100 0 gusting 3 13.3
2014-Oct-24 03:27 357 0 gusting 2 13.3
2014-Oct-24 03:17 059 12.8
2014-Oct-24 03:07 060 12.8
2014-Oct-24 02:57 060 12.8
2014-Oct-24 02:47 060 12.8
2014-Oct-24 02:37 060 12.8
2014-Oct-24 02:27 060 12.8
2014-Oct-24 02:17 066 2 gusting 3 12.8
2014-Oct-24 02:07 098 12.8
2014-Oct-24 01:57 098 12.8
2014-Oct-24 01:47 099 12.2
2014-Oct-24 01:41 099 12.2
2014-Oct-24 01:37 099 12.2
2014-Oct-24 01:31 099 12.2
2014-Oct-24 01:27 099 12.2
2014-Oct-24 01:21 100 12.2
2014-Oct-24 01:17 100 12.2
2014-Oct-24 01:11 112 12.2
2014-Oct-24 01:07 115 12.2
2014-Oct-24 01:01 121 12.2
2014-Oct-24 00:57 087 0 gusting 2 12.2
2014-Oct-24 00:51 063 12.2
2014-Oct-24 00:47 063 12.2
2014-Oct-24 00:41 063 12.2
2014-Oct-24 00:37 064 12.2
2014-Oct-24 00:31 063 12.2
2014-Oct-24 00:27 063 0 gusting 2 12.2
2014-Oct-24 00:21 069 0 gusting 3 12.2
2014-Oct-24 00:17 074 12.2
2014-Oct-24 00:11 074 12.8
2014-Oct-24 00:07 074 12.8
2014-Oct-24 00:01 072 12.8
2014-Oct-23 23:57 072 12.8
2014-Oct-23 23:51 072 12.8
2014-Oct-23 23:47 072 12.8
2014-Oct-23 23:41 092 12.8
2014-Oct-23 23:37 095 12.8
2014-Oct-23 23:31 114 12.8
2014-Oct-23 23:27 120 0 gusting 3 12.8
2014-Oct-23 23:21 183 0 gusting 3 12.8
2014-Oct-23 23:17 064 0 gusting 3 12.8
2014-Oct-23 23:11 063 12.8
2014-Oct-23 23:07 047 3 gusting 4 12.8
2014-Oct-23 23:01 052 4 gusting 4 13.3
2014-Oct-23 22:57 051 0 gusting 4 13.3
2014-Oct-23 22:51 062 2 gusting 2 13.3
2014-Oct-23 22:47 049 4 gusting 6 13.3
2014-Oct-23 22:41 051 5 gusting 5 13.3
2014-Oct-23 22:37 021 4 gusting 6 13.3
2014-Oct-23 22:31 046 4 gusting 4 13.3
2014-Oct-23 22:27 022 13.3
2014-Oct-23 22:21 341 13.3
2014-Oct-23 22:17 026 0 gusting 2 13.3
2014-Oct-23 22:11 047 13.3
2014-Oct-23 22:07 047 13.3
2014-Oct-23 22:01 047 13.3
2014-Oct-23 21:57 047 13.3
2014-Oct-23 21:51 047 13.3
2014-Oct-23 21:47 043 1 13.3
2014-Oct-23 21:41 064 13.9
2014-Oct-23 21:37 101 13.9
2014-Oct-23 21:31 137 0 gusting 2 13.9
2014-Oct-23 21:27 067 13.9
2014-Oct-23 21:21 299 1 gusting 3 13.9
2014-Oct-23 21:17 020 13.9
2014-Oct-23 21:11 067 3 gusting 3 13.9
2014-Oct-23 21:07 031 13.9
2014-Oct-23 21:01 024 13.9
2014-Oct-23 20:57 057 2 gusting 3 13.9
2014-Oct-23 20:51 059 2 gusting 3 13.9
2014-Oct-23 20:47 131 13.3
2014-Oct-23 20:41 064 3 gusting 6 13.3
2014-Oct-23 20:37 051 3 gusting 6 13.3
2014-Oct-23 20:31 035 6 gusting 7 12.8
2014-Oct-23 20:27 045 6 gusting 11 12.8
2014-Oct-23 20:21 054 6 gusting 7 12.8
2014-Oct-23 20:17 024 6 gusting 8 12.8
2014-Oct-23 20:11 010 5 gusting 5 12.8
2014-Oct-23 20:07 044 6 gusting 7 12.8
2014-Oct-23 20:01 032 6 gusting 11 12.8
2014-Oct-23 19:57 003 6 gusting 8 13.3
2014-Oct-23 19:51 001 6 gusting 7 13.3
2014-Oct-23 19:47 019 6 gusting 10 13.3
2014-Oct-23 19:41 030 7 gusting 8 13.3
2014-Oct-23 19:37 021 9 gusting 13 13.3
2014-Oct-23 19:31 030 6 gusting 13 13.3
2014-Oct-23 19:27 035 6 gusting 6 13.3
2014-Oct-23 19:21 015 6 gusting 7 13.3
2014-Oct-23 19:17 022 5 gusting 13 13.3
2014-Oct-23 19:11 044 5 gusting 10 13.3
2014-Oct-23 19:07 042 5 gusting 10 13.3
2014-Oct-23 19:01 019 7 gusting 12 13.3
2014-Oct-23 18:57 029 7 gusting 11 13.3
2014-Oct-23 18:51 012 6 gusting 7 13.3
2014-Oct-23 18:47 025 6 gusting 7 13.9
2014-Oct-23 18:27 018 4 gusting 6 13.9
2014-Oct-23 18:21 006 4 gusting 7 13.9
2014-Oct-23 18:17 13.9
2014-Oct-23 18:11 038 5 gusting 5 13.9
2014-Oct-23 18:07 354 4 gusting 5 13.9
2014-Oct-23 17:57 337 3 gusting 6 14.4
2014-Oct-23 17:47 341 4 gusting 5 14.4
2014-Oct-23 17:37 354 6 gusting 6 14.4
2014-Oct-23 17:27 358 6 gusting 7 14.4
2014-Oct-23 17:17 013 6 gusting 8 15.0
2014-Oct-23 17:07 004 4 gusting 6 15.0
2014-Oct-23 16:57 023 3 gusting 4 15.0
2014-Oct-23 16:47 349 3 gusting 7 15.0
2014-Oct-23 16:37 356 5 gusting 5 15.0
2014-Oct-23 16:27 356 6 gusting 7 15.0
2014-Oct-23 16:17 017 6 gusting 10 15.0
2014-Oct-23 16:07 043 4 gusting 6 15.0
2014-Oct-23 15:57 014 5 gusting 5 14.4
2014-Oct-23 15:47 007 5 gusting 6 14.4
2014-Oct-23 15:37 001 5 gusting 6 14.4
2014-Oct-23 15:27 011 6 gusting 6 13.9
2014-Oct-23 15:17 040 5 gusting 6 15.0
2014-Oct-23 15:07 354 5 gusting 7 15.6
2014-Oct-23 14:57 15.6
2014-Oct-23 14:47 355 0 gusting 5 15.6
2014-Oct-23 14:37 341 1 15.6
2014-Oct-23 14:27 051 3 gusting 5 15.6
2014-Oct-23 14:17 006 5 gusting 6 15.6
2014-Oct-23 14:07 007 5 gusting 6 15.6
2014-Oct-23 13:57 001 8 gusting 9 15.6
2014-Oct-23 13:47 328 3 gusting 6 15.6
2014-Oct-23 13:37 343 5 gusting 9 15.6
2014-Oct-23 13:27 303 5 gusting 11 15.6
2014-Oct-23 13:17 006 7 gusting 10 15.6
2014-Oct-23 13:07 317 5 gusting 5 15.6
2014-Oct-23 12:57 286 4 gusting 7 15.6
2014-Oct-23 12:47 043 6 gusting 6 15.6
2014-Oct-23 12:37 022 7 gusting 7 15.6
2014-Oct-23 12:27 001 7 gusting 11 15.0
2014-Oct-23 12:17 005 7 gusting 12 15.0
2014-Oct-23 12:07 007 6 gusting 8 15.0
2014-Oct-23 11:57 350 9 gusting 14 15.0
2014-Oct-23 11:47 353 6 gusting 9 15.0
2014-Oct-23 11:37 003 6 gusting 5 14.4
2014-Oct-23 11:27 352 6 gusting 8 15.0
2014-Oct-23 11:17 339 7 gusting 12 15.0
2014-Oct-23 11:07 352 8 gusting 11 14.4